createdAt,value
2023-04-13T00:00:55.843Z,4.13
2023-04-13T00:03:24.507Z,3.65
2023-04-13T00:05:53.774Z,4.55
2023-04-13T00:08:23.015Z,4.07
2023-04-13T00:10:54.381Z,4.55
2023-04-13T00:13:22.461Z,3.80
2023-04-13T00:15:50.477Z,4.05
2023-04-13T00:18:19.114Z,3.90
2023-04-13T00:20:47.143Z,4.60
2023-04-13T00:23:16.497Z,5.13
2023-04-13T00:25:44.750Z,5.00
2023-04-13T00:28:16.640Z,4.50
2023-04-13T00:30:44.754Z,4.43
2023-04-13T00:33:12.978Z,4.22
2023-04-13T00:35:41.709Z,4.57
2023-04-13T00:38:11.587Z,4.97
2023-04-13T00:40:39.654Z,5.28
2023-04-13T00:43:07.692Z,4.78
2023-04-13T00:45:39.050Z,4.60
2023-04-13T00:48:10.675Z,4.85
2023-04-13T00:50:38.888Z,4.75
2023-04-13T00:53:10.616Z,4.63
2023-04-13T00:55:42.541Z,4.80
2023-04-13T00:58:10.763Z,5.03
2023-04-13T01:00:43.205Z,5.35
2023-04-13T01:03:11.866Z,4.95
2023-04-13T01:05:50.522Z,5.13
2023-04-13T01:08:25.823Z,5.15
2023-04-13T01:10:59.871Z,5.22
2023-04-13T01:13:36.065Z,5.50
2023-04-13T01:16:16.695Z,5.03
2023-04-13T01:18:50.100Z,5.38
2023-04-13T01:21:24.309Z,5.18
2023-04-13T01:24:02.933Z,4.85
2023-04-13T01:26:39.194Z,5.13
2023-04-13T01:29:10.203Z,5.15
2023-04-13T01:31:38.992Z,5.35
2023-04-13T01:34:07.296Z,5.35
2023-04-13T01:36:35.703Z,5.32
2023-04-13T01:39:04.412Z,5.38
2023-04-13T01:41:33.456Z,5.15
2023-04-13T01:44:01.938Z,5.40
2023-04-13T01:46:37.837Z,6.18
2023-04-13T01:49:12.130Z,5.40
2023-04-13T01:51:59.889Z,5.72
2023-04-13T01:54:33.816Z,6.40
2023-04-13T01:57:03.338Z,6.18
2023-04-13T01:59:31.656Z,6.13
2023-04-13T02:02:01.505Z,6.32
2023-04-13T02:04:29.616Z,6.10
2023-04-13T02:06:58.915Z,5.28
2023-04-13T02:09:31.465Z,5.70
2023-04-13T02:11:59.727Z,6.03
2023-04-13T02:14:28.303Z,6.00
2023-04-13T02:16:56.402Z,6.63
2023-04-13T02:19:25.842Z,6.30
2023-04-13T02:21:54.183Z,5.63
2023-04-13T02:24:22.188Z,5.68
2023-04-13T02:26:50.972Z,6.15
2023-04-13T02:29:18.984Z,5.95
2023-04-13T02:31:47.181Z,5.10
2023-04-13T02:34:15.360Z,4.90
2023-04-13T02:36:46.495Z,5.25
2023-04-13T02:39:14.519Z,4.97
2023-04-13T02:41:43.367Z,4.93
2023-04-13T02:44:15.970Z,4.75
2023-04-13T02:46:51.383Z,4.97
2023-04-13T02:49:19.684Z,5.00
2023-04-13T02:51:58.808Z,4.65
2023-04-13T02:54:44.471Z,4.60
2023-04-13T02:57:13.467Z,5.82
2023-04-13T02:59:43.297Z,4.95
2023-04-13T03:02:12.661Z,4.43
2023-04-13T03:04:41.238Z,4.10
2023-04-13T03:07:10.787Z,4.72
2023-04-13T03:09:44.719Z,4.30
2023-04-13T03:12:13.343Z,4.30
2023-04-13T03:14:43.965Z,4.57
2023-04-13T03:17:12.736Z,4.30
2023-04-13T03:19:42.725Z,4.03
2023-04-13T03:22:13.142Z,4.25
2023-04-13T03:24:47.309Z,4.22
2023-04-13T03:27:23.203Z,3.92
2023-04-13T03:29:53.266Z,4.57
2023-04-13T03:32:23.917Z,3.78
2023-04-13T03:34:58.991Z,4.03
2023-04-13T03:37:30.451Z,3.55
2023-04-13T03:40:05.205Z,3.17
2023-04-13T03:42:42.065Z,3.33
2023-04-13T03:45:11.322Z,3.00
2023-04-13T03:47:40.944Z,3.10
2023-04-13T03:50:11.323Z,3.63
2023-04-13T03:52:41.865Z,3.15
2023-04-13T03:55:10.792Z,3.60
2023-04-13T03:57:40.987Z,3.05
2023-04-13T04:00:15.890Z,3.80
2023-04-13T04:03:04.460Z,3.28
2023-04-13T04:05:40.453Z,3.35
2023-04-13T04:08:10.103Z,2.65
2023-04-13T04:10:39.256Z,3.20
2023-04-13T04:13:07.386Z,2.97
2023-04-13T04:15:41.806Z,3.67
2023-04-13T04:18:10.561Z,3.55
2023-04-13T04:20:40.745Z,3.38
2023-04-13T04:23:13.880Z,3.67
2023-04-13T04:25:48.003Z,3.97
2023-04-13T04:28:18.213Z,3.45
2023-04-13T04:30:54.041Z,3.08
2023-04-13T04:33:23.688Z,3.80
2023-04-13T04:35:54.102Z,3.08
2023-04-13T04:38:30.507Z,3.85
2023-04-13T04:41:02.500Z,3.38
2023-04-13T04:43:32.217Z,3.33
2023-04-13T04:46:03.217Z,3.10
2023-04-13T04:48:33.066Z,3.90
2023-04-13T04:51:01.194Z,3.63
2023-04-13T04:53:35.525Z,3.78
2023-04-13T04:56:08.382Z,3.75
2023-04-13T04:58:46.362Z,4.00
2023-04-13T05:01:15.279Z,4.45
2023-04-13T05:03:43.938Z,4.30
2023-04-13T05:06:32.588Z,4.13
2023-04-13T05:09:06.015Z,4.30
2023-04-13T05:11:36.788Z,4.85
2023-04-13T05:14:06.998Z,4.95
2023-04-13T05:16:36.059Z,5.05
2023-04-13T05:19:12.728Z,4.85
2023-04-13T05:22:10.009Z,5.20
2023-04-13T05:24:45.968Z,5.00
2023-04-13T05:27:16.560Z,5.30
2023-04-13T05:29:46.887Z,5.00
2023-04-13T05:32:18.454Z,5.63
2023-04-13T05:34:48.411Z,5.82
2023-04-13T05:37:22.693Z,5.38
2023-04-13T05:39:52.105Z,5.03
2023-04-13T05:42:24.994Z,5.22
2023-04-13T05:44:53.266Z,5.53
2023-04-13T05:47:23.398Z,5.78
2023-04-13T05:49:56.188Z,5.47
2023-04-13T05:52:25.551Z,4.65
2023-04-13T05:54:54.821Z,5.68
2023-04-13T05:57:24.485Z,4.88
2023-04-13T05:59:55.411Z,5.45
2023-04-13T06:02:27.376Z,4.77
2023-04-13T06:04:56.528Z,5.00
2023-04-13T06:07:26.077Z,5.00
2023-04-13T06:09:58.207Z,5.13
2023-04-13T06:12:26.631Z,4.78
2023-04-13T06:14:54.665Z,4.80
2023-04-13T06:17:22.601Z,4.60
2023-04-13T06:19:50.506Z,4.45
2023-04-13T06:22:18.390Z,4.75
2023-04-13T06:24:46.254Z,4.60
2023-04-13T06:27:15.564Z,4.47
2023-04-13T06:29:46.765Z,4.22
2023-04-13T06:32:14.945Z,4.50
2023-04-13T06:34:44.580Z,4.00
2023-04-13T06:37:13.051Z,4.18
2023-04-13T06:39:47.271Z,3.97
2023-04-13T06:42:16.825Z,3.38
2023-04-13T06:45:09.196Z,3.80
2023-04-13T06:47:42.045Z,3.50
2023-04-13T06:50:15.575Z,2.95
2023-04-13T06:52:45.465Z,3.42
2023-04-13T06:55:13.779Z,3.15
2023-04-13T06:57:43.761Z,3.10
2023-04-13T07:00:28.151Z,3.40
2023-04-13T07:02:58.471Z,3.20
2023-04-13T07:05:26.748Z,3.00
2023-04-13T07:07:58.292Z,2.70
2023-04-13T07:10:27.313Z,3.42
2023-04-13T07:12:59.353Z,2.83
2023-04-13T07:15:30.480Z,2.08
2023-04-13T07:17:58.807Z,2.80
2023-04-13T07:20:27.780Z,2.90
2023-04-13T07:22:55.701Z,2.72
2023-04-13T07:25:23.950Z,2.80
2023-04-13T07:27:52.328Z,2.33
2023-04-13T07:30:24.048Z,2.42
2023-04-13T07:32:52.156Z,2.25
2023-04-13T07:35:21.594Z,2.40
2023-04-13T07:37:52.833Z,2.35
2023-04-13T07:40:22.884Z,2.60
2023-04-13T07:42:54.541Z,2.60
2023-04-13T07:45:24.853Z,2.50
2023-04-13T07:47:54.700Z,2.90
2023-04-13T07:50:23.081Z,2.13
2023-04-13T07:52:52.280Z,2.30
2023-04-13T07:55:23.237Z,2.42
2023-04-13T07:57:52.677Z,2.25
2023-04-13T08:00:22.892Z,1.98
2023-04-13T08:02:58.321Z,2.03
2023-04-13T08:05:28.437Z,2.47
2023-04-13T08:07:56.876Z,1.98
2023-04-13T08:10:25.854Z,2.20
2023-04-13T08:12:56.043Z,1.88
2023-04-13T08:15:24.856Z,2.05
2023-04-13T08:17:53.874Z,1.83
2023-04-13T08:20:24.182Z,2.10
2023-04-13T08:22:54.139Z,1.42
2023-04-13T08:25:22.577Z,1.90
2023-04-13T08:27:51.029Z,1.90
2023-04-13T08:30:19.863Z,1.80
2023-04-13T08:32:54.663Z,1.73
2023-04-13T08:35:25.806Z,1.55
2023-04-13T08:37:53.960Z,1.40
2023-04-13T08:40:22.733Z,1.52
2023-04-13T08:42:55.327Z,1.42
2023-04-13T08:45:23.418Z,1.58
2023-04-13T08:47:51.584Z,1.52
2023-04-13T08:50:26.294Z,1.23
2023-04-13T08:52:55.923Z,1.30
2023-04-13T08:55:26.418Z,1.67
2023-04-13T08:57:59.411Z,1.80
2023-04-13T09:00:27.565Z,1.10
2023-04-13T09:03:04.892Z,0.85
2023-04-13T09:05:40.250Z,1.55
2023-04-13T09:08:11.669Z,1.17
2023-04-13T09:10:42.261Z,1.13
2023-04-13T09:13:10.446Z,1.00
2023-04-13T09:15:38.884Z,1.02
2023-04-13T09:18:49.877Z,0.98
2023-04-13T09:21:19.348Z,0.90
2023-04-13T09:23:54.718Z,0.80
2023-04-13T09:26:22.787Z,0.82
2023-04-13T09:28:53.229Z,0.82
2023-04-13T09:31:22.570Z,1.02
2023-04-13T09:33:51.989Z,0.98
2023-04-13T09:36:22.881Z,1.13
2023-04-13T09:38:55.182Z,1.00
2023-04-13T09:41:30.922Z,0.93
2023-04-13T09:43:59.344Z,1.10
2023-04-13T09:46:27.522Z,0.82
2023-04-13T09:49:05.095Z,0.98
2023-04-13T09:51:41.993Z,1.05
2023-04-13T09:54:12.044Z,0.93
2023-04-13T09:56:48.109Z,1.08
2023-04-13T09:59:17.220Z,1.00
2023-04-13T10:01:45.792Z,0.93
2023-04-13T10:04:14.131Z,0.90
2023-04-13T10:06:44.869Z,0.98
2023-04-13T10:09:12.969Z,0.88
2023-04-13T10:11:47.425Z,0.80
2023-04-13T10:14:19.029Z,0.93
2023-04-13T10:17:28.200Z,1.05
2023-04-13T10:20:07.813Z,0.80
2023-04-13T10:22:38.603Z,0.90
2023-04-13T10:25:08.062Z,0.70
2023-04-13T10:27:37.419Z,0.85
2023-04-13T10:30:16.008Z,0.80
2023-04-13T10:32:43.979Z,1.05
2023-04-13T10:35:14.322Z,1.27
2023-04-13T10:37:46.077Z,0.80
2023-04-13T10:40:16.262Z,0.90
2023-04-13T10:45:20.389Z,0.68
2023-04-13T10:47:49.043Z,0.95
2023-04-13T10:50:18.478Z,1.10
2023-04-13T10:53:03.017Z,0.95
2023-04-13T10:55:31.624Z,1.52
2023-04-13T10:58:00.664Z,0.80
2023-04-13T11:00:44.814Z,0.90
2023-04-13T11:03:16.777Z,0.90
2023-04-13T11:05:47.157Z,0.90
2023-04-13T11:08:20.581Z,0.80
2023-04-13T11:10:52.538Z,0.65
2023-04-13T11:13:20.965Z,0.98
2023-04-13T11:15:50.589Z,0.90
2023-04-13T11:18:27.094Z,0.75
2023-04-13T11:20:55.508Z,0.80
2023-04-13T11:23:25.402Z,1.08
2023-04-13T11:25:55.158Z,0.82
2023-04-13T11:28:24.140Z,1.08
2023-04-13T11:30:56.420Z,1.10
2023-04-13T11:33:29.948Z,0.80
2023-04-13T11:35:59.006Z,0.60
2023-04-13T11:38:28.893Z,0.80
2023-04-13T11:43:36.105Z,0.85
2023-04-13T11:46:03.980Z,1.02
2023-04-13T11:48:32.636Z,0.80
2023-04-13T11:51:00.994Z,1.17
2023-04-13T11:53:32.169Z,0.88
2023-04-13T11:56:00.212Z,1.10
2023-04-13T11:58:28.274Z,1.10
2023-04-13T12:00:59.898Z,0.80
2023-04-13T12:03:47.023Z,0.75
2023-04-13T12:06:24.462Z,1.10
2023-04-13T12:09:09.354Z,0.90
2023-04-13T12:11:41.982Z,0.60
2023-04-13T12:14:47.643Z,1.00
2023-04-13T12:17:34.780Z,0.95
2023-04-13T12:20:03.841Z,0.77
2023-04-13T12:22:50.893Z,1.13
2023-04-13T12:25:25.401Z,1.00
2023-04-13T12:27:54.747Z,0.90
2023-04-13T12:30:23.993Z,1.20
2023-04-13T12:32:54.117Z,1.60
2023-04-13T12:35:22.230Z,1.00
2023-04-13T12:37:50.228Z,0.82
2023-04-13T12:40:19.243Z,1.08
2023-04-13T12:42:49.590Z,0.98
2023-04-13T12:45:17.643Z,1.00
2023-04-13T12:47:45.634Z,0.88
2023-04-13T12:50:14.058Z,0.80
2023-04-13T12:52:43.665Z,0.82
2023-04-13T12:55:12.243Z,0.70
2023-04-13T12:57:40.565Z,0.70
2023-04-13T13:00:12.195Z,0.80
2023-04-13T13:02:40.208Z,0.80
2023-04-13T13:05:09.304Z,0.90
2023-04-13T13:07:37.246Z,1.10
2023-04-13T13:10:14.933Z,0.93
2023-04-13T13:12:49.884Z,0.82
2023-04-13T13:15:19.201Z,0.90
2023-04-13T13:17:47.129Z,0.73
2023-04-13T13:20:15.409Z,0.88
2023-04-13T13:22:43.574Z,0.77
2023-04-13T13:25:11.618Z,0.93
2023-04-13T13:28:10.209Z,0.85
2023-04-13T13:30:29.965Z,0.60
2023-04-13T13:32:57.909Z,1.05
2023-04-13T13:35:25.805Z,1.08
2023-04-13T13:37:53.686Z,0.95
2023-04-13T13:40:21.505Z,0.80
2023-04-13T13:42:52.304Z,1.83
2023-04-13T13:45:20.966Z,1.10
2023-04-13T13:47:53.216Z,0.80
2023-04-13T13:50:25.218Z,0.75
2023-04-13T13:53:02.392Z,0.80
2023-04-13T13:55:34.394Z,1.45
2023-04-13T13:58:02.435Z,0.88
2023-04-13T14:00:31.137Z,0.77
2023-04-13T14:03:00.829Z,0.50
2023-04-13T14:05:28.811Z,1.08
2023-04-13T14:07:56.663Z,0.90
2023-04-13T14:10:24.496Z,1.00
2023-04-13T14:12:54.605Z,0.65
2023-04-13T14:15:22.740Z,1.02
2023-04-13T14:18:02.418Z,1.08
2023-04-13T14:20:39.989Z,0.80
2023-04-13T14:23:09.722Z,0.60
2023-04-13T14:25:38.905Z,0.80
2023-04-13T14:28:08.969Z,1.27
2023-04-13T14:30:36.891Z,0.90
2023-04-13T14:33:05.767Z,0.70
2023-04-13T14:35:34.333Z,0.80
2023-04-13T14:38:03.749Z,0.77
2023-04-13T14:40:31.865Z,0.88
2023-04-13T14:42:59.794Z,0.60
2023-04-13T14:45:28.597Z,0.80
2023-04-13T14:47:56.477Z,0.75
2023-04-13T14:50:24.341Z,0.90
2023-04-13T14:52:52.447Z,0.73
2023-04-13T14:55:22.840Z,1.08
2023-04-13T14:57:51.107Z,1.13
2023-04-13T15:00:22.445Z,0.82
2023-04-13T15:02:52.474Z,0.93
2023-04-13T15:05:21.235Z,0.73
2023-04-13T15:07:50.764Z,0.52
2023-04-13T15:10:19.160Z,0.75
2023-04-13T15:12:49.011Z,1.10
2023-04-13T15:15:16.998Z,0.80
2023-04-13T15:17:44.982Z,0.60
2023-04-13T15:20:12.964Z,0.90
2023-04-13T15:22:40.793Z,1.00
2023-04-13T15:25:09.160Z,0.70
2023-04-13T15:27:37.142Z,0.70
2023-04-13T15:30:08.151Z,0.68
2023-04-13T15:32:36.310Z,0.90
2023-04-13T15:35:04.624Z,0.57
2023-04-13T15:37:32.497Z,0.85
2023-04-13T15:40:00.846Z,1.00
2023-04-13T15:42:28.689Z,0.88
2023-04-13T15:44:56.503Z,0.95
2023-04-13T15:47:25.726Z,1.00
2023-04-13T15:49:53.598Z,0.73
2023-04-13T15:52:21.433Z,0.80
2023-04-13T15:54:49.242Z,0.80
2023-04-13T15:57:17.488Z,0.90
2023-04-13T15:59:45.737Z,0.85
2023-04-13T16:02:13.772Z,0.65
2023-04-13T16:04:43.104Z,0.70
2023-04-13T16:07:14.105Z,0.93
2023-04-13T16:09:44.776Z,0.90
2023-04-13T16:12:12.914Z,0.75
2023-04-13T16:14:42.048Z,0.90
2023-04-13T16:17:10.357Z,0.93
2023-04-13T16:19:39.634Z,0.82
2023-04-13T16:22:10.918Z,0.90
2023-04-13T16:24:38.852Z,0.60
2023-04-13T16:27:07.321Z,0.68
2023-04-13T16:29:35.191Z,1.25
2023-04-13T16:32:03.142Z,1.30
2023-04-13T16:34:30.980Z,0.70
2023-04-13T16:36:58.888Z,1.35
2023-04-13T16:39:28.152Z,0.63
2023-04-13T16:41:56.032Z,0.90
2023-04-13T16:44:23.874Z,0.85
2023-04-13T16:46:51.811Z,0.93
2023-04-13T16:49:19.710Z,1.10
2023-04-13T16:51:48.476Z,1.00
2023-04-13T16:54:17.862Z,0.98
2023-04-13T16:56:47.173Z,0.90
2023-04-13T16:59:15.023Z,0.85
2023-04-13T17:01:42.841Z,1.17
2023-04-13T17:04:10.823Z,1.00
2023-04-13T17:06:39.645Z,0.80
2023-04-13T17:09:07.926Z,0.90
2023-04-13T17:11:36.023Z,1.42
2023-04-13T17:14:05.238Z,0.85
2023-04-13T17:16:33.164Z,1.05
2023-04-13T17:19:01.612Z,1.02
2023-04-13T17:21:29.787Z,1.00
2023-04-13T17:23:57.634Z,1.10
2023-04-13T17:26:25.456Z,9.95
2023-04-13T17:28:53.326Z,1.95
2023-04-13T17:31:22.574Z,1.00
2023-04-13T17:33:51.124Z,1.05
2023-04-13T17:36:19.403Z,1.10
2023-04-13T17:38:47.322Z,1.15
2023-04-13T17:41:15.305Z,0.77
2023-04-13T17:43:43.181Z,0.98
2023-04-13T17:46:12.426Z,0.90
2023-04-13T17:48:42.022Z,1.20
2023-04-13T17:51:11.673Z,0.90
2023-04-13T17:53:39.976Z,0.93
2023-04-13T17:56:09.190Z,1.10
2023-04-13T17:58:36.991Z,1.13
2023-04-13T18:01:09.192Z,1.00
2023-04-13T18:03:37.489Z,1.70
2023-04-13T18:06:07.059Z,1.23
2023-04-13T18:08:34.882Z,1.05
2023-04-13T18:11:02.815Z,1.15
2023-04-13T18:13:31.454Z,1.02
2023-04-13T18:15:59.516Z,1.10
2023-04-13T18:18:27.490Z,1.10
2023-04-13T18:20:55.641Z,1.63
2023-04-13T18:23:25.154Z,1.10
2023-04-13T18:25:53.165Z,1.00
2023-04-13T18:28:21.076Z,1.42
2023-04-13T18:30:48.941Z,1.20
2023-04-13T18:33:16.790Z,1.15
2023-04-13T18:35:45.768Z,1.55
2023-04-13T18:38:13.791Z,2.25
2023-04-13T18:40:43.288Z,1.63
2023-04-13T18:43:11.112Z,2.20
2023-04-13T18:45:39.051Z,1.85
2023-04-13T18:48:09.356Z,2.60
2023-04-13T18:50:37.597Z,2.40
2023-04-13T18:53:05.811Z,2.85
2023-04-13T18:55:33.827Z,2.53
2023-04-13T18:58:03.029Z,2.35
2023-04-13T19:00:32.286Z,2.20
2023-04-13T19:03:01.105Z,2.88
2023-04-13T19:05:29.220Z,2.42
2023-04-13T19:07:58.942Z,2.83
2023-04-13T19:10:27.992Z,2.22
2023-04-13T19:12:56.542Z,2.40
2023-04-13T19:15:25.932Z,2.47
2023-04-13T19:17:54.105Z,2.70
2023-04-13T19:20:24.025Z,2.42
2023-04-13T19:22:52.473Z,2.10
2023-04-13T19:25:20.619Z,2.42
2023-04-13T19:27:50.095Z,2.55
2023-04-13T19:30:19.621Z,2.88
2023-04-13T19:32:50.959Z,2.70
2023-04-13T19:35:21.517Z,2.60
2023-04-13T19:37:49.381Z,2.63
2023-04-13T19:40:17.858Z,2.80
2023-04-13T19:42:47.064Z,2.63
2023-04-13T19:45:15.668Z,2.75
2023-04-13T19:47:43.694Z,2.72
2023-04-13T19:50:14.370Z,2.70
2023-04-13T19:52:42.878Z,2.55
2023-04-13T19:55:12.051Z,2.58
2023-04-13T19:57:42.815Z,2.90
2023-04-13T20:00:19.115Z,3.10
2023-04-13T20:02:49.570Z,2.63
2023-04-13T20:05:21.143Z,3.00
2023-04-13T20:07:50.368Z,3.10
2023-04-13T20:10:18.375Z,2.80
2023-04-13T20:12:46.229Z,2.75
2023-04-13T20:15:14.827Z,2.88
2023-04-13T20:17:42.716Z,3.08
2023-04-13T20:20:11.162Z,2.83
2023-04-13T20:22:40.499Z,2.85
2023-04-13T20:25:09.198Z,2.60
2023-04-13T20:27:41.701Z,3.45
2023-04-13T20:30:10.947Z,2.08
2023-04-13T20:32:39.148Z,2.75
2023-04-13T20:35:08.118Z,3.10
2023-04-13T20:37:36.300Z,2.60
2023-04-13T20:40:07.101Z,3.00
2023-04-13T20:42:35.052Z,2.72
2023-04-13T20:45:04.868Z,2.80
2023-04-13T20:47:35.580Z,3.35
2023-04-13T20:50:04.834Z,3.38
2023-04-13T20:52:32.650Z,3.00
2023-04-13T20:55:00.514Z,3.28
2023-04-13T20:57:30.386Z,3.10
2023-04-13T20:59:58.310Z,3.15
2023-04-13T21:02:26.656Z,3.85
2023-04-13T21:04:56.542Z,3.20
2023-04-13T21:07:24.472Z,2.70
2023-04-13T21:09:52.406Z,3.08
2023-04-13T21:12:20.285Z,3.15
2023-04-13T21:14:49.599Z,2.85
2023-04-13T21:17:17.468Z,2.95
2023-04-13T21:19:45.320Z,3.10
2023-04-13T21:22:13.167Z,2.80
2023-04-13T21:24:41.450Z,3.22
2023-04-13T21:27:09.278Z,3.75
2023-04-13T21:29:37.182Z,3.35
2023-04-13T21:32:06.536Z,2.90
2023-04-13T21:34:34.587Z,3.50
2023-04-13T21:37:03.241Z,3.08
2023-04-13T21:39:31.219Z,3.42
2023-04-13T21:41:59.062Z,3.42
2023-04-13T21:44:29.725Z,3.40
2023-04-13T21:46:58.411Z,3.42
2023-04-13T21:49:27.732Z,3.20
2023-04-13T21:51:55.604Z,3.38
2023-04-13T21:54:23.458Z,3.50
2023-04-13T21:56:51.379Z,3.80
2023-04-13T21:59:19.291Z,3.90
2023-04-13T22:01:47.391Z,3.42
2023-04-13T22:04:15.438Z,3.10
2023-04-13T22:06:44.710Z,3.65
2023-04-13T22:09:13.363Z,4.00
2023-04-13T22:11:41.427Z,3.58
2023-04-13T22:14:09.562Z,4.00
2023-04-13T22:16:37.415Z,3.85
2023-04-13T22:19:05.396Z,3.90
2023-04-13T22:21:35.644Z,3.75
2023-04-13T22:24:05.024Z,4.00
2023-04-13T22:26:32.891Z,3.65
2023-04-13T22:29:00.833Z,3.72
2023-04-13T22:31:28.910Z,4.15
2023-04-13T22:33:57.180Z,4.15
2023-04-13T22:36:25.107Z,4.25
2023-04-13T22:38:52.943Z,3.95
2023-04-13T22:41:22.186Z,4.05
2023-04-13T22:43:50.110Z,3.90
2023-04-13T22:46:18.568Z,3.90
2023-04-13T22:48:46.502Z,3.60
2023-04-13T22:51:14.330Z,4.10
2023-04-13T22:53:42.185Z,4.10
2023-04-13T22:56:10.079Z,3.90
2023-04-13T22:58:39.255Z,4.28
2023-04-13T23:01:07.075Z,4.05
2023-04-13T23:03:34.964Z,4.05
2023-04-13T23:06:05.385Z,4.25
2023-04-13T23:08:33.253Z,4.43
2023-04-13T23:11:08.017Z,4.90
2023-04-13T23:13:36.699Z,3.72
2023-04-13T23:16:06.944Z,4.25
2023-04-13T23:18:34.884Z,4.28
2023-04-13T23:21:10.096Z,4.43
2023-04-13T23:23:38.051Z,4.40
2023-04-13T23:26:06.735Z,4.53
2023-04-13T23:28:34.677Z,4.15
2023-04-13T23:31:08.314Z,4.88
2023-04-13T23:33:36.716Z,4.10
2023-04-13T23:36:05.026Z,4.13
2023-04-13T23:38:33.626Z,4.78
2023-04-13T23:41:01.587Z,4.20
2023-04-13T23:43:29.575Z,4.18
2023-04-13T23:45:58.969Z,4.40
2023-04-13T23:48:28.357Z,4.63
2023-04-13T23:50:57.245Z,3.85
2023-04-13T23:53:25.160Z,4.45
2023-04-13T23:55:53.014Z,4.50
2023-04-13T23:58:20.884Z,4.88
